createdAt,value
2023-08-14T00:00:44.220Z,7.43
2023-08-14T00:04:49.313Z,6.43
2023-08-14T00:08:53.947Z,6.35
2023-08-14T00:12:56.955Z,6.05
2023-08-14T00:17:00.285Z,7.25
2023-08-14T00:21:05.514Z,6.32
2023-08-14T00:25:10.492Z,6.28
2023-08-14T00:29:14.028Z,5.95
2023-08-14T00:33:17.438Z,5.20
2023-08-14T00:37:25.150Z,6.18
2023-08-14T00:41:28.383Z,5.43
2023-08-14T00:45:45.463Z,5.90
2023-08-14T00:49:49.826Z,5.45
2023-08-14T00:53:56.983Z,5.15
2023-08-14T00:58:00.473Z,4.03
2023-08-14T01:02:03.992Z,4.38
2023-08-14T01:06:07.401Z,4.35
2023-08-14T01:10:14.200Z,4.20
2023-08-14T01:14:22.038Z,4.50
2023-08-14T01:18:28.977Z,3.95
2023-08-14T01:22:43.337Z,3.38
2023-08-14T01:26:48.857Z,4.15
2023-08-14T01:30:52.219Z,3.70
2023-08-14T01:34:57.242Z,4.35
2023-08-14T01:39:08.150Z,4.45
2023-08-14T01:43:17.621Z,3.58
2023-08-14T01:47:23.014Z,3.88
2023-08-14T01:51:26.783Z,4.10
2023-08-14T01:55:30.364Z,3.05
2023-08-14T01:59:43.044Z,4.38
2023-08-14T02:07:49.214Z,3.80
2023-08-14T02:11:53.118Z,3.45
2023-08-14T02:15:57.967Z,4.25
2023-08-14T02:20:01.538Z,3.35
2023-08-14T02:24:05.410Z,3.53
2023-08-14T02:28:08.757Z,3.13
2023-08-14T02:32:13.982Z,3.53
2023-08-14T02:36:17.663Z,3.40
2023-08-14T02:40:21.048Z,3.20
2023-08-14T02:44:24.421Z,3.08
2023-08-14T02:48:29.370Z,2.35
2023-08-14T02:52:32.819Z,2.63
2023-08-14T02:56:37.544Z,2.63
2023-08-14T03:00:40.938Z,3.40
2023-08-14T03:04:46.008Z,2.63
2023-08-14T03:08:49.339Z,2.17
2023-08-14T03:12:52.858Z,2.35
2023-08-14T03:16:56.110Z,2.33
2023-08-14T03:21:01.123Z,2.47
2023-08-14T03:25:05.056Z,2.50
2023-08-14T03:29:08.322Z,2.70
2023-08-14T03:33:12.295Z,3.08
2023-08-14T03:37:17.562Z,2.03
2023-08-14T03:41:21.213Z,2.15
2023-08-14T03:45:24.382Z,2.33
2023-08-14T03:49:28.186Z,3.10
2023-08-14T03:53:33.632Z,2.15
2023-08-14T03:57:38.120Z,2.33
2023-08-14T04:01:44.641Z,2.25
2023-08-14T04:05:47.805Z,2.78
2023-08-14T04:09:53.065Z,2.63
2023-08-14T04:13:56.345Z,1.92
2023-08-14T04:17:59.804Z,2.17
2023-08-14T04:22:03.155Z,2.15
2023-08-14T04:26:08.453Z,1.85
2023-08-14T04:30:12.616Z,1.95
2023-08-14T04:34:16.034Z,2.05
2023-08-14T04:38:19.708Z,1.65
2023-08-14T04:42:24.824Z,2.28
2023-08-14T04:46:38.379Z,1.90
2023-08-14T04:50:48.530Z,2.35
2023-08-14T04:54:52.462Z,2.17
2023-08-14T04:58:57.467Z,2.50
2023-08-14T05:03:00.772Z,2.50
2023-08-14T05:07:04.369Z,3.17
2023-08-14T05:11:08.960Z,2.25
2023-08-14T05:15:14.305Z,2.50
2023-08-14T05:19:17.507Z,3.10
2023-08-14T05:23:20.475Z,2.50
2023-08-14T05:27:26.705Z,3.03
2023-08-14T05:31:32.249Z,3.35
2023-08-14T05:35:35.361Z,4.22
2023-08-14T05:39:38.848Z,3.75
2023-08-14T05:43:42.392Z,4.47
2023-08-14T05:47:47.284Z,4.75
2023-08-14T05:51:50.716Z,4.68
2023-08-14T05:55:53.929Z,5.07
2023-08-14T05:59:57.246Z,5.55
2023-08-14T06:04:02.469Z,5.78
2023-08-14T06:08:07.709Z,5.47
2023-08-14T06:12:11.092Z,5.50
2023-08-14T06:16:15.193Z,6.05
2023-08-14T06:20:20.165Z,5.65
2023-08-14T06:24:24.232Z,4.72
2023-08-14T06:28:27.675Z,5.20
2023-08-14T06:32:31.019Z,4.75
2023-08-14T06:36:35.866Z,4.55
2023-08-14T06:40:39.487Z,5.38
2023-08-14T06:44:42.716Z,5.55
2023-08-14T06:48:48.129Z,5.40
2023-08-14T06:52:54.390Z,5.20
2023-08-14T06:56:57.853Z,4.90
2023-08-14T07:01:01.677Z,4.80
2023-08-14T07:05:08.559Z,4.90
2023-08-14T07:09:17.556Z,4.63
2023-08-14T07:13:20.827Z,4.32
2023-08-14T07:17:24.170Z,4.78
2023-08-14T07:21:29.050Z,4.05
2023-08-14T07:25:34.148Z,4.95
2023-08-14T07:29:37.616Z,4.25
2023-08-14T07:33:40.687Z,4.22
2023-08-14T07:37:44.178Z,4.10
2023-08-14T07:41:54.380Z,4.35
2023-08-14T07:45:57.738Z,4.45
2023-08-14T07:50:01.335Z,3.80
2023-08-14T07:54:06.271Z,3.20
2023-08-14T07:58:11.061Z,2.97
2023-08-14T08:02:14.476Z,4.10
2023-08-14T08:06:17.642Z,3.55
2023-08-14T08:10:21.245Z,3.28
2023-08-14T08:14:25.940Z,4.05
2023-08-14T08:18:29.155Z,3.80
2023-08-14T08:22:32.378Z,3.85
2023-08-14T08:26:35.765Z,4.25
2023-08-14T08:30:40.384Z,4.03
2023-08-14T08:34:43.787Z,3.67
2023-08-14T08:38:47.833Z,3.78
2023-08-14T08:42:51.616Z,3.78
2023-08-14T08:47:00.482Z,3.75
2023-08-14T08:51:04.556Z,4.60
2023-08-14T08:55:09.444Z,3.40
2023-08-14T08:59:13.262Z,3.92
2023-08-14T09:03:19.652Z,3.70
2023-08-14T09:07:23.825Z,3.85
2023-08-14T09:11:27.266Z,3.70
2023-08-14T09:15:33.800Z,3.22
2023-08-14T09:19:40.359Z,3.42
2023-08-14T09:23:44.203Z,3.42
2023-08-14T09:27:47.905Z,3.08
2023-08-14T09:31:56.116Z,3.25
2023-08-14T09:36:01.279Z,3.28
2023-08-14T09:40:14.430Z,2.92
2023-08-14T09:44:20.520Z,2.50
2023-08-14T09:48:26.505Z,2.92
2023-08-14T09:52:31.589Z,3.20
2023-08-14T09:56:35.226Z,2.92
2023-08-14T10:00:40.167Z,2.92
2023-08-14T10:04:45.730Z,2.78
2023-08-14T10:08:53.472Z,3.17
2023-08-14T10:13:01.329Z,2.85
2023-08-14T10:17:09.114Z,2.75
2023-08-14T10:21:15.299Z,2.35
2023-08-14T10:25:21.066Z,2.80
2023-08-14T10:29:24.963Z,2.83
2023-08-14T10:37:56.285Z,3.35
2023-08-14T10:42:14.948Z,3.42
2023-08-14T10:46:18.885Z,3.67
2023-08-14T10:50:23.747Z,3.05
2023-08-14T10:54:41.485Z,3.60
2023-08-14T10:58:50.077Z,3.85
2023-08-14T11:02:56.084Z,3.00
2023-08-14T11:07:10.400Z,2.88
2023-08-14T11:11:13.805Z,3.42
2023-08-14T11:23:45.977Z,2.97
2023-08-14T11:27:54.826Z,3.42
2023-08-14T11:31:59.218Z,3.95
2023-08-14T11:36:10.901Z,3.30
2023-08-14T11:40:18.285Z,2.88
2023-08-14T11:44:24.501Z,2.97
2023-08-14T11:48:28.128Z,3.47
2023-08-14T11:52:32.147Z,3.45
2023-08-14T11:56:37.393Z,3.75
2023-08-14T12:00:43.214Z,3.85
2023-08-14T12:04:46.371Z,3.30
2023-08-14T12:08:49.534Z,3.40
2023-08-14T12:12:56.131Z,3.00
2023-08-14T12:17:12.926Z,3.40
2023-08-14T12:21:19.540Z,3.47
2023-08-14T12:25:23.156Z,3.42
2023-08-14T12:29:31.401Z,3.38
2023-08-14T12:33:34.648Z,3.65
2023-08-14T12:37:37.884Z,3.72
2023-08-14T12:41:43.408Z,3.67
2023-08-14T12:45:48.409Z,3.38
2023-08-14T12:49:53.130Z,3.50
2023-08-14T12:53:56.599Z,3.58
2023-08-14T12:57:59.680Z,3.50
2023-08-14T13:02:05.422Z,3.50
2023-08-14T13:06:09.006Z,3.30
2023-08-14T13:10:14.136Z,3.53
2023-08-14T13:14:17.322Z,3.05
2023-08-14T13:18:22.959Z,3.42
2023-08-14T13:22:26.624Z,2.92
2023-08-14T13:26:32.617Z,2.65
2023-08-14T13:30:37.715Z,3.35
2023-08-14T13:34:43.477Z,3.30
2023-08-14T13:38:47.636Z,3.50
2023-08-14T13:42:51.349Z,3.15
2023-08-14T13:46:55.062Z,3.28
2023-08-14T13:51:01.552Z,3.88
2023-08-14T13:55:05.316Z,3.35
2023-08-14T13:59:09.273Z,3.55
2023-08-14T14:03:12.728Z,3.40
2023-08-14T14:07:22.043Z,3.38
2023-08-14T14:11:26.299Z,2.75
2023-08-14T14:15:29.911Z,2.50
2023-08-14T14:19:33.094Z,3.05
2023-08-14T14:23:38.065Z,3.25
2023-08-14T14:27:41.566Z,2.72
2023-08-14T14:31:45.297Z,3.17
2023-08-14T14:35:50.682Z,4.07
2023-08-14T14:39:55.156Z,3.03
2023-08-14T14:43:58.341Z,3.33
2023-08-14T14:48:04.726Z,3.42
2023-08-14T14:52:08.405Z,3.33
2023-08-14T14:56:13.493Z,3.10
2023-08-14T15:00:17.795Z,2.45
2023-08-14T15:04:21.312Z,2.65
2023-08-14T15:08:27.176Z,2.85
2023-08-14T15:12:31.844Z,2.50
2023-08-14T15:16:34.942Z,2.78
2023-08-14T15:20:38.791Z,2.55
2023-08-14T15:24:41.945Z,2.75
2023-08-14T15:28:46.932Z,2.65
2023-08-14T15:32:50.384Z,2.35
2023-08-14T15:36:53.826Z,2.55
2023-08-14T15:40:58.452Z,2.05
2023-08-14T15:45:07.971Z,2.40
2023-08-14T15:49:12.025Z,2.22
2023-08-14T15:53:15.434Z,2.47
2023-08-14T15:57:18.745Z,2.17
2023-08-14T16:01:24.268Z,2.22
2023-08-14T16:05:27.654Z,1.77
2023-08-14T16:09:31.437Z,2.03
2023-08-14T16:13:35.275Z,2.25
2023-08-14T16:17:43.590Z,1.67
2023-08-14T16:21:46.862Z,2.05
2023-08-14T16:25:50.375Z,1.85
2023-08-14T16:29:53.424Z,1.75
2023-08-14T16:33:58.873Z,2.00
2023-08-14T16:38:06.083Z,1.65
2023-08-14T16:42:10.116Z,1.60
2023-08-14T16:46:13.464Z,2.22
2023-08-14T16:50:18.249Z,1.38
2023-08-14T16:54:21.643Z,1.90
2023-08-14T16:58:25.087Z,1.80
2023-08-14T17:02:28.531Z,1.98
2023-08-14T17:06:33.602Z,2.10
2023-08-14T17:10:37.772Z,1.88
2023-08-14T17:14:41.655Z,1.70
2023-08-14T17:18:44.800Z,1.60
2023-08-14T17:22:49.576Z,1.92
2023-08-14T17:26:53.306Z,1.50
2023-08-14T17:30:57.833Z,1.85
2023-08-14T17:35:01.057Z,1.63
2023-08-14T17:39:09.605Z,1.88
2023-08-14T17:43:14.178Z,2.17
2023-08-14T17:47:17.871Z,1.80
2023-08-14T17:51:21.659Z,1.95
2023-08-14T17:55:26.710Z,1.77
2023-08-14T17:59:37.431Z,1.73
2023-08-14T18:03:40.887Z,2.28
2023-08-14T18:07:45.456Z,2.08
2023-08-14T18:11:50.704Z,2.13
2023-08-14T18:15:54.281Z,1.73
2023-08-14T18:19:57.938Z,1.92
2023-08-14T18:24:12.026Z,2.58
2023-08-14T18:29:09.607Z,2.13
2023-08-14T18:33:14.754Z,2.13
2023-08-14T18:37:18.910Z,1.70
2023-08-14T18:41:22.381Z,1.55
2023-08-14T18:45:27.622Z,1.90
2023-08-14T18:49:32.660Z,2.40
2023-08-14T18:53:36.707Z,1.90
2023-08-14T18:57:40.394Z,1.65
2023-08-14T19:01:44.725Z,1.55
2023-08-14T19:05:50.138Z,1.52
2023-08-14T19:09:54.316Z,1.48
2023-08-14T19:13:57.513Z,2.38
2023-08-14T19:18:00.854Z,2.00
2023-08-14T19:22:06.519Z,1.80
2023-08-14T19:26:22.493Z,2.47
2023-08-14T19:30:31.534Z,2.50
2023-08-14T19:34:35.417Z,1.48
2023-08-14T19:38:40.503Z,1.98
2023-08-14T19:42:51.915Z,1.88
2023-08-14T19:46:55.158Z,1.85
2023-08-14T19:50:58.775Z,2.20
2023-08-14T19:55:04.746Z,1.70
2023-08-14T19:59:09.457Z,2.42
2023-08-14T20:03:13.305Z,2.40
2023-08-14T20:07:17.328Z,2.47
2023-08-14T20:11:22.808Z,2.00
2023-08-14T20:15:26.672Z,2.33
2023-08-14T20:19:30.269Z,1.95
2023-08-14T20:23:35.905Z,2.40
2023-08-14T20:27:40.987Z,2.28
2023-08-14T20:31:45.132Z,1.83
2023-08-14T20:35:48.931Z,2.35
2023-08-14T20:39:53.000Z,2.28
2023-08-14T20:43:57.965Z,2.40
2023-08-14T20:48:01.704Z,2.00
2023-08-14T20:52:06.712Z,1.95
2023-08-14T20:56:11.671Z,2.17
2023-08-14T21:00:18.011Z,2.00
2023-08-14T21:04:21.617Z,1.60
2023-08-14T21:08:25.258Z,2.08
2023-08-14T21:12:32.049Z,1.77
2023-08-14T21:16:36.899Z,2.05
2023-08-14T21:20:44.671Z,1.73
2023-08-14T21:24:47.876Z,1.90
2023-08-14T21:28:51.705Z,1.75
2023-08-14T21:32:56.983Z,2.20
2023-08-14T21:37:00.528Z,1.77
2023-08-14T21:41:05.423Z,2.28
2023-08-14T21:45:14.232Z,1.98
2023-08-14T21:49:19.104Z,2.25
2023-08-14T21:53:22.752Z,2.22
2023-08-14T21:57:28.564Z,1.95
2023-08-14T22:01:32.535Z,2.08
2023-08-14T22:05:37.687Z,1.98
2023-08-14T22:09:41.523Z,1.80
2023-08-14T22:13:46.913Z,2.35
2023-08-14T22:17:52.475Z,1.77
2023-08-14T22:21:57.512Z,2.47
2023-08-14T22:26:01.241Z,1.73
2023-08-14T22:30:05.337Z,1.38
2023-08-14T22:34:10.799Z,2.47
2023-08-14T22:38:15.889Z,2.42
2023-08-14T22:42:19.716Z,2.47
2023-08-14T22:46:23.540Z,1.80
2023-08-14T22:50:27.256Z,2.38
2023-08-14T22:54:32.099Z,2.28
2023-08-14T22:58:35.694Z,2.22
2023-08-14T23:02:40.443Z,2.63
2023-08-14T23:06:46.657Z,2.35
2023-08-14T23:10:52.406Z,2.33
2023-08-14T23:14:57.755Z,1.70
2023-08-14T23:19:02.176Z,2.30
2023-08-14T23:23:07.548Z,2.67
2023-08-14T23:27:12.551Z,2.20
2023-08-14T23:31:16.098Z,2.42
2023-08-14T23:35:19.678Z,2.10
2023-08-14T23:39:23.255Z,2.50
2023-08-14T23:43:28.629Z,2.00
2023-08-14T23:47:32.036Z,2.35
2023-08-14T23:51:35.711Z,2.47
2023-08-14T23:55:39.672Z,2.63
2023-08-14T23:59:44.677Z,2.80
